Flight Track Log - Related Links

Times and Time Zones

All times are in EDT time to prevent confusion due to time zone crossing. See the SWA1586 flight status page for this flight to view local times or setup timezone preferences in your user account.

Time Position Orientation Groundspeed Altitude Reporting Facility
EDT Latitude Longitude Course Direction KTS MPH feet Rate Location/Type
Mon 11:15:23 PM 40.7692 -111.9639 251° West 148 170 4,900  Level Salt Lake Center
Mon 11:16:24 PM 40.7517 -112.0292 251° West 210 242 7,000 1,765 Climbing Salt Lake Center
Mon 11:17:22 PM 40.7808 -112.0808 307° West 269 310 8,400 2,370 Climbing Salt Lake Center
Mon 11:18:23 PM 40.8375 -111.9933 49° Northeast 312 359 11,700 2,459 Climbing Salt Lake Center
Mon 11:19:24 PM 40.8497 -111.8728 82° East 338 389 13,400 2,115 Climbing Salt Lake Center
Mon 11:20:25 PM 40.8681 -111.7447 79° East 360 414 16,000 2,361 Climbing Salt Lake Center
Mon 11:21:26 PM 40.8850 -111.6067 81° East 389 448 18,200 2,244 Climbing Salt Lake Center
Mon 11:22:28 PM 40.9025 -111.4625 81° East 402 463 20,600 2,244 Climbing Salt Lake Center
Mon 11:23:29 PM 40.9006 -111.3147 91° East 406 467 22,800 1,869 Climbing Salt Lake Center
Mon 11:24:30 PM 40.8811 -111.1653 100° East 415 478 24,400 1,869 Climbing Salt Lake Center
Mon 11:25:31 PM 40.8586 -110.9781 99° East 431 496 26,600 1,770 Climbing Salt Lake Center
Mon 11:26:32 PM 40.8400 -110.8189 99° East 439 505 28,000 1,525 Climbing Salt Lake Center
Mon 11:27:33 PM 40.8194 -110.6561 99° East 448 516 29,700 1,869 Climbing Salt Lake Center
Mon 11:28:34 PM 40.7978 -110.4886 100° East 447 514 31,800 1,951 Climbing Salt Lake Center
Mon 11:29:36 PM 40.7803 -110.3375 99° East 437 503 33,700 1,707 Climbing Salt Lake Center
Mon 11:30:37 PM 40.7606 -110.1819 99° East 432 497 35,300 1,426 Climbing Salt Lake Center
Mon 11:31:38 PM 40.7392 -110.0100 99° East 429 494 36,600 836 Climbing Salt Lake Center
Mon 11:32:39 PM 40.7300 -109.8606 95° East 429 494 37,000 197 Climbing Salt Lake Center
Mon 11:33:40 PM 40.7186 -109.7103 96° East 429 494 37,000  Level Salt Lake Center
Mon 11:34:41 PM 40.7061 -109.5336 95° East 432 497 37,000  Level Salt Lake Center
Mon 11:35:42 PM 40.6953 -109.3833 95° East 433 498 37,000  Level Salt Lake Center
Mon 11:36:43 PM 40.6833 -109.2331 96° East 431 496 37,000  Level Salt Lake Center
Mon 11:37:44 PM 40.6708 -109.0689 96° East 434 499 37,000  Level Salt Lake Center
Mon 11:38:45 PM 40.6572 -108.8961 96° East 429 494 37,000  Level Salt Lake Center
Mon 11:39:22 PM 40.6508 -108.8033 95° East 430 495 37,000  Level Denver Center
Mon 11:40:23 PM 40.6378 -108.6531 96° East 430 495 37,000  Level Denver Center
Mon 11:40:48 PM 40.6328 -108.5981 97° East 429 494 37,000  Level Salt Lake Center
Mon 11:41:24 PM 40.6239 -108.4806 96° East 424 488 37,000  Level Denver Center
Mon 11:42:25 PM 40.6117 -108.3317 96° East 425 489 37,000  Level Denver Center
Mon 11:42:50 PM 40.6067 -108.2794 97° East 424 488 37,000  Level Salt Lake Center
Mon 11:43:51 PM 40.5917 -108.1092 97° East 421 484 37,000  Level Salt Lake Center
Mon 11:44:28 PM 40.5847 -108.0142 95° East 421 484 37,000  Level Denver Center
Mon 11:45:29 PM 40.5722 -107.8681 96° East 420 483 37,000  Level Denver Center
Mon 11:46:30 PM 40.5578 -107.7222 97° East 419 482 37,000  Level Denver Center
Mon 11:47:31 PM 40.5428 -107.5517 97° East 420 483 37,000  Level Denver Center
Mon 11:48:32 PM 40.5289 -107.4064 97° East 419 482 37,000 -390 Level Denver Center
Mon 11:49:34 PM 40.5172 -107.2594 96° East 420 483 36,200 -927 Descending Denver Center
Mon 11:50:35 PM 40.5094 -107.0847 93° East 421 484 35,100 -590 Descending Denver Center
Mon 11:51:36 PM 40.5006 -106.9303 94° East 422 486 35,000 -49 Descending Denver Center
Mon 11:52:37 PM 40.4908 -106.7742 95° East 425 489 35,000  Level Denver Center
Mon 11:53:38 PM 40.4836 -106.6181 93° East 426 490 35,000  Level Denver Center
Mon 11:54:40 PM 40.4750 -106.4694 94° East 428 493 35,000 -1,317 Level Denver Center
Mon 11:55:41 PM 40.4644 -106.2928 94° East 432 497 32,300 -2,754 Descending Denver Center
Mon 11:56:42 PM 40.4553 -106.1469 95° East 429 494 29,400 -2,705 Descending Denver Center
Mon 11:57:43 PM 40.4450 -105.9903 95° East 430 495 26,800 -2,508 Descending Denver Center
Mon 11:58:44 PM 40.4214 -105.8431 102° East 412 474 24,300 -2,341 Descending Denver Center
Mon 11:59:46 PM 40.3989 -105.7003 102° East 401 461 22,000 -1,512 Descending Denver Center
Tue 12:00:47 AM 40.3750 -105.5636 103° East 391 450 21,200 -1,426 Descending Denver Center
Tue 12:01:48 AM 40.3533 -105.4217 101° East 362 417 19,100 -1,623 Descending Denver Center
Tue 12:02:49 AM 40.3367 -105.2931 100° East 358 412 17,900 -1,574 Descending Denver Center
Tue 12:03:50 AM 40.3169 -105.1572 101° East 354 407 15,900 -1,951 Descending Denver Center
Tue 12:04:52 AM 40.2697 -105.0467 119° Southeast 347 399 13,900 -1,756 Descending Denver Center
Tue 12:05:53 AM 40.2244 -104.9417 119° Southeast 335 386 12,300 -1,426 Descending Denver Center
Tue 12:06:54 AM 40.1828 -104.8433 119° Southeast 314 361 11,000 -1,475 Descending Denver Center
Tue 12:07:55 AM 40.1397 -104.7553 123° Southeast 296 341 9,300 -1,525 Descending Denver Center
Tue 12:08:56 AM 40.0628 -104.7283 165° South 263 303 7,900 -976 Descending Denver Center
Tue 12:09:58 AM 40.0094 -104.7028 160° South 205 236 7,300 -634 Descending Denver Center
Tue 12:10:59 AM 39.9600 -104.6942 172° South 182 209 6,600 -738 Descending Denver Center
Tue 12:12:00 AM 39.9183 -104.6958 182° South 155 178 5,800 -590 Descending Denver Center
Tue 12:13:01 AM 39.8806 -104.6967 181° South 134 154 5,400 -393 Descending Denver Center
Tue 12:15:00 AM 39.8617 -104.6732 180° South  Level Estimated
Tue 12:22:00 AM 39.8617 -104.6732 180° South  Level Estimated
Tue 12:23:00 AM 39.8617 -104.6732 180° South  Level Estimated

Login

Don't have an account? Register now (free) for customized features, flight alerts, and more!